Time,TemperatureF,DewpointF,PressureIn,WindDirection,WindDirectionDegrees,WindSpeedMPH,WindSpeedGustMPH,Humidity,HourlyPrecipIn,Conditions,Clouds,dailyrainin,SoftwareType,DateUTC
2014-03-07 00:03:00,38.0,37.0,29.55,North,355,0.0,0.0,95,0.00,,,0.00,weatherlink.com 1.10,2014-03-07 06:03:00,
2014-03-07 00:19:00,38.1,37.0,29.55,North,355,0.0,0.0,95,0.00,,,0.00,weatherlink.com 1.10,2014-03-07 06:19:00,
2014-03-07 00:34:00,38.0,37.0,29.55,North,355,0.0,0.0,95,0.00,,,0.00,weatherlink.com 1.10,2014-03-07 06:34:00,
2014-03-07 00:49:00,38.0,37.0,29.55,North,355,0.0,0.0,95,0.00,,,0.00,weatherlink.com 1.10,2014-03-07 06:49:00,
2014-03-07 01:04:00,38.1,37.0,29.55,North,355,0.0,0.0,95,0.00,,,0.00,weatherlink.com 1.10,2014-03-07 07:04:00,
2014-03-07 01:19:00,38.1,37.0,29.55,North,355,0.0,0.0,95,0.00,,,0.00,weatherlink.com 1.10,2014-03-07 07:19:00,
2014-03-07 01:34:00,38.1,37.0,29.55,North,355,0.0,0.0,95,0.00,,,0.00,weatherlink.com 1.10,2014-03-07 07:34:00,
2014-03-07 01:49:00,38.1,37.0,29.55,North,355,0.0,0.0,95,0.00,,,0.00,weatherlink.com 1.10,2014-03-07 07:49:00,
2014-03-07 02:04:00,38.1,37.0,29.55,North,355,0.0,0.0,95,0.00,,,0.00,weatherlink.com 1.10,2014-03-07 08:04:00,
2014-03-07 02:19:00,38.2,37.0,29.55,North,355,0.0,0.0,95,0.00,,,0.00,weatherlink.com 1.10,2014-03-07 08:19:00,
2014-03-07 02:34:00,38.2,37.0,29.55,North,355,0.0,0.0,95,0.00,,,0.00,weatherlink.com 1.10,2014-03-07 08:34:00,
2014-03-07 02:49:00,38.1,37.0,29.55,North,355,0.0,0.0,95,0.00,,,0.00,weatherlink.com 1.10,2014-03-07 08:49:00,
2014-03-07 03:04:00,38.2,37.0,29.55,North,355,0.0,0.0,95,0.00,,,0.00,weatherlink.com 1.10,2014-03-07 09:04:00,
2014-03-07 03:19:00,38.1,37.0,29.55,North,355,0.0,0.0,95,0.00,,,0.00,weatherlink.com 1.10,2014-03-07 09:19:00,
2014-03-07 03:34:00,38.1,37.0,29.55,North,355,0.0,0.0,95,0.00,,,0.00,weatherlink.com 1.10,2014-03-07 09:34:00,
2014-03-07 03:49:00,38.2,37.0,29.55,North,355,0.0,0.0,95,0.00,,,0.00,weatherlink.com 1.10,2014-03-07 09:49:00,
2014-03-07 04:04:00,38.3,37.0,29.55,North,355,0.0,0.0,95,0.00,,,0.00,weatherlink.com 1.10,2014-03-07 10:04:00,
2014-03-07 04:19:00,38.4,37.0,29.55,North,355,0.0,1.0,95,0.00,,,0.00,weatherlink.com 1.10,2014-03-07 10:19:00,
2014-03-07 04:34:00,38.6,37.0,29.55,North,355,0.0,0.0,95,0.00,,,0.00,weatherlink.com 1.10,2014-03-07 10:34:00,
2014-03-07 04:49:00,38.7,37.0,29.55,North,355,0.0,0.0,95,0.00,,,0.00,weatherlink.com 1.10,2014-03-07 10:49:00,
2014-03-07 05:04:00,38.8,38.0,29.55,NNW,346,0.0,1.0,96,0.00,,,0.00,weatherlink.com 1.10,2014-03-07 11:04:00,
2014-03-07 05:19:00,38.8,38.0,29.55,NNW,346,0.0,0.0,96,0.00,,,0.00,weatherlink.com 1.10,2014-03-07 11:19:00,
2014-03-07 05:34:00,38.9,38.0,29.55,NNW,346,0.0,0.0,96,0.00,,,0.00,weatherlink.com 1.10,2014-03-07 11:34:00,
2014-03-07 05:49:00,39.0,38.0,29.55,NNW,346,0.0,0.0,96,0.00,,,0.00,weatherlink.com 1.10,2014-03-07 11:49:00,
2014-03-07 06:04:00,39.1,38.0,29.55,NNW,346,0.0,0.0,96,0.00,,,0.00,weatherlink.com 1.10,2014-03-07 12:04:00,
2014-03-07 06:19:00,39.2,38.0,29.55,NNW,335,0.0,1.0,95,0.00,,,0.00,weatherlink.com 1.10,2014-03-07 12:19:00,
2014-03-07 06:34:00,39.2,38.0,29.55,NW,319,0.0,0.0,95,0.00,,,0.00,weatherlink.com 1.10,2014-03-07 12:34:00,
2014-03-07 06:49:00,39.5,39.0,29.55,NW,319,0.0,0.0,96,0.00,,,0.00,weatherlink.com 1.10,2014-03-07 12:49:00,
2014-03-07 07:04:00,39.7,39.0,29.55,NW,319,0.0,1.0,96,0.00,,,0.00,weatherlink.com 1.10,2014-03-07 13:04:00,
2014-03-07 07:19:00,40.2,39.0,29.55,NW,319,0.0,0.0,96,0.00,,,0.00,weatherlink.com 1.10,2014-03-07 13:19:00,
2014-03-07 07:34:00,40.9,40.0,29.55,NW,319,0.0,0.0,96,0.00,,,0.00,weatherlink.com 1.10,2014-03-07 13:34:00,
2014-03-07 07:49:00,41.7,41.0,29.55,NNW,345,1.0,1.0,96,0.00,,,0.00,weatherlink.com 1.10,2014-03-07 13:49:00,
2014-03-07 08:04:00,42.2,41.0,29.55,NNW,331,0.0,1.0,96,0.00,,,0.00,weatherlink.com 1.10,2014-03-07 14:04:00,
2014-03-07 08:19:00,43.5,42.0,29.55,NW,315,0.0,1.0,95,0.00,,,0.00,weatherlink.com 1.10,2014-03-07 14:19:00,
2014-03-07 08:34:00,44.0,42.0,29.55,North,355,0.0,1.0,91,0.00,,,0.00,weatherlink.com 1.10,2014-03-07 14:34:00,
2014-03-07 08:49:00,44.5,42.0,29.55,North,355,0.0,0.0,92,0.00,,,0.00,weatherlink.com 1.10,2014-03-07 14:49:00,
2014-03-07 09:04:00,45.3,43.0,29.55,North,355,0.0,0.0,90,0.00,,,0.00,weatherlink.com 1.10,2014-03-07 15:04:00,
2014-03-07 09:19:00,46.3,43.0,29.55,NNE,16,0.0,1.0,87,0.00,,,0.00,weatherlink.com 1.10,2014-03-07 15:19:00,
2014-03-07 09:34:00,47.4,43.0,29.55,SE,146,0.0,0.0,86,0.00,,,0.00,weatherlink.com 1.10,2014-03-07 15:34:00,
2014-03-07 09:49:00,48.4,43.0,29.55,East,88,0.0,0.0,82,0.00,,,0.00,weatherlink.com 1.10,2014-03-07 15:49:00,
2014-03-07 10:04:00,49.8,44.0,29.55,ESE,104,0.0,2.0,81,0.00,,,0.00,weatherlink.com 1.10,2014-03-07 16:04:00,
2014-03-07 10:19:00,50.9,45.0,29.55,South,182,0.0,3.0,79,0.00,,,0.00,weatherlink.com 1.10,2014-03-07 16:19:00,
2014-03-07 10:34:00,52.1,44.0,29.55,North,5,0.0,1.0,74,0.00,,,0.00,weatherlink.com 1.10,2014-03-07 16:34:00,
2014-03-07 10:50:00,53.3,44.0,29.55,East,82,0.0,2.0,70,0.00,,,0.00,weatherlink.com 1.10,2014-03-07 16:50:00,
2014-03-07 11:05:00,54.0,44.0,29.55,SW,227,0.0,5.0,70,0.00,,,0.00,weatherlink.com 1.10,2014-03-07 17:05:00,
2014-03-07 11:20:00,55.3,45.0,29.55,NNE,15,0.0,3.0,69,0.00,,,0.00,weatherlink.com 1.10,2014-03-07 17:20:00,
2014-03-07 11:35:00,56.5,46.0,29.55,SSE,155,0.0,4.0,67,0.00,,,0.00,weatherlink.com 1.10,2014-03-07 17:35:00,
2014-03-07 11:50:00,57.3,46.0,29.55,SSE,148,0.0,3.0,66,0.00,,,0.00,weatherlink.com 1.10,2014-03-07 17:50:00,
2014-03-07 12:05:00,58.0,46.0,29.55,South,171,0.0,5.0,65,0.00,,,0.00,weatherlink.com 1.10,2014-03-07 18:05:00,
2014-03-07 12:20:00,58.1,45.0,29.55,South,169,2.0,6.0,63,0.00,,,0.00,weatherlink.com 1.10,2014-03-07 18:20:00,
2014-03-07 12:35:00,58.9,47.0,29.55,SE,127,0.0,5.0,65,0.00,,,0.00,weatherlink.com 1.10,2014-03-07 18:35:00,
2014-03-07 12:50:00,58.7,46.0,29.55,SSE,154,0.0,3.0,62,0.00,,,0.00,weatherlink.com 1.10,2014-03-07 18:50:00,
2014-03-07 13:05:00,58.9,45.0,29.55,West,269,0.0,5.0,60,0.00,,,0.00,weatherlink.com 1.10,2014-03-07 19:05:00,
2014-03-07 13:20:00,59.3,45.0,29.55,North,360,0.0,4.0,60,0.00,,,0.00,weatherlink.com 1.10,2014-03-07 19:20:00,
2014-03-07 13:35:00,60.2,45.0,29.55,NW,307,0.0,2.0,57,0.00,,,0.00,weatherlink.com 1.10,2014-03-07 19:35:00,
2014-03-07 13:50:00,61.2,45.0,29.55,SW,226,1.0,6.0,56,0.00,,,0.00,weatherlink.com 1.10,2014-03-07 19:50:00,
2014-03-07 14:05:00,61.4,45.0,29.55,WSW,239,0.0,4.0,56,0.00,,,0.00,weatherlink.com 1.10,2014-03-07 20:05:00,
2014-03-07 14:20:00,62.4,45.0,29.55,SW,229,0.0,1.0,54,0.00,,,0.00,weatherlink.com 1.10,2014-03-07 20:20:00,
2014-03-07 14:35:00,62.6,45.0,29.55,SW,224,0.0,7.0,53,0.00,,,0.00,weatherlink.com 1.10,2014-03-07 20:35:00,
2014-03-07 14:50:00,62.3,44.0,29.55,SW,216,0.0,3.0,52,0.00,,,0.00,weatherlink.com 1.10,2014-03-07 20:50:00,
2014-03-07 15:05:00,62.5,44.0,29.55,NW,322,1.0,5.0,52,0.00,,,0.00,weatherlink.com 1.10,2014-03-07 21:05:00,
2014-03-07 15:20:00,62.8,42.0,29.55,NNW,347,0.0,7.0,47,0.00,,,0.00,weatherlink.com 1.10,2014-03-07 21:20:00,
2014-03-07 15:35:00,62.9,42.0,29.55,North,355,0.0,7.0,47,0.00,,,0.00,weatherlink.com 1.10,2014-03-07 21:35:00,
2014-03-07 15:50:00,63.2,42.0,29.55,WSW,244,1.0,4.0,46,0.00,,,0.00,weatherlink.com 1.10,2014-03-07 21:50:00,
2014-03-07 16:05:00,63.8,44.0,29.55,WSW,254,0.0,7.0,48,0.00,,,0.00,weatherlink.com 1.10,2014-03-07 22:05:00,
2014-03-07 16:20:00,63.1,42.0,29.55,North,355,0.0,4.0,46,0.00,,,0.00,weatherlink.com 1.10,2014-03-07 22:20:00,
2014-03-07 16:35:00,62.1,42.0,29.55,NW,309,0.0,2.0,48,0.00,,,0.00,weatherlink.com 1.10,2014-03-07 22:35:00,
2014-03-07 16:50:00,61.6,43.0,29.55,WSW,252,0.0,4.0,51,0.00,,,0.00,weatherlink.com 1.10,2014-03-07 22:50:00,
2014-03-07 17:05:00,60.7,44.0,29.55,NNW,344,0.0,6.0,55,0.00,,,0.00,weatherlink.com 1.10,2014-03-07 23:05:00,
2014-03-07 17:20:00,59.3,45.0,29.55,NW,312,0.0,0.0,59,0.00,,,0.00,weatherlink.com 1.10,2014-03-07 23:20:00,
2014-03-07 17:35:00,57.0,45.0,29.55,NW,312,0.0,0.0,64,0.00,,,0.00,weatherlink.com 1.10,2014-03-07 23:35:00,
2014-03-07 17:50:00,54.2,45.0,29.55,NW,312,0.0,0.0,71,0.00,,,0.00,weatherlink.com 1.10,2014-03-07 23:50:00,
2014-03-07 18:05:00,52.3,44.0,29.55,NW,312,0.0,0.0,73,0.00,,,0.00,weatherlink.com 1.10,2014-03-08 00:05:00,
2014-03-07 18:21:00,50.7,44.0,29.55,NW,311,0.0,0.0,77,0.00,,,0.00,weatherlink.com 1.10,2014-03-08 00:21:00,
2014-03-07 18:35:00,49.0,43.0,29.55,NW,312,0.0,0.0,79,0.00,,,0.00,weatherlink.com 1.10,2014-03-08 00:35:00,
2014-03-07 18:50:00,47.9,42.0,29.55,NW,312,0.0,0.0,80,0.00,,,0.00,weatherlink.com 1.10,2014-03-08 00:50:00,
2014-03-07 19:05:00,46.9,42.0,29.55,NW,312,0.0,0.0,82,0.00,,,0.00,weatherlink.com 1.10,2014-03-08 01:05:00,
2014-03-07 19:20:00,45.9,41.0,29.55,NW,312,0.0,0.0,83,0.00,,,0.00,weatherlink.com 1.10,2014-03-08 01:20:00,
2014-03-07 19:35:00,45.1,40.0,29.55,NW,312,0.0,0.0,83,0.00,,,0.00,weatherlink.com 1.10,2014-03-08 01:35:00,
2014-03-07 19:50:00,44.5,40.0,29.55,NW,312,0.0,0.0,85,0.00,,,0.00,weatherlink.com 1.10,2014-03-08 01:50:00,
2014-03-07 20:05:00,43.7,39.0,29.55,NW,312,0.0,0.0,84,0.00,,,0.00,weatherlink.com 1.10,2014-03-08 02:05:00,
2014-03-07 20:20:00,43.1,39.0,29.55,NW,312,0.0,0.0,84,0.00,,,0.00,weatherlink.com 1.10,2014-03-08 02:20:00,
2014-03-07 20:35:00,42.6,39.0,29.55,NW,312,0.0,0.0,87,0.00,,,0.00,weatherlink.com 1.10,2014-03-08 02:35:00,
2014-03-07 20:50:00,42.0,38.0,29.55,NW,312,0.0,0.0,87,0.00,,,0.00,weatherlink.com 1.10,2014-03-08 02:50:00,
2014-03-07 21:05:00,41.6,39.0,29.55,NW,312,0.0,0.0,89,0.00,,,0.00,weatherlink.com 1.10,2014-03-08 03:05:00,
2014-03-07 21:20:00,41.1,38.0,29.55,NW,312,0.0,0.0,89,0.00,,,0.00,weatherlink.com 1.10,2014-03-08 03:20:00,
2014-03-07 21:35:00,40.8,38.0,29.55,NW,312,0.0,0.0,89,0.00,,,0.00,weatherlink.com 1.10,2014-03-08 03:35:00,
2014-03-07 21:51:00,40.6,38.0,29.55,NW,312,0.0,0.0,90,0.00,,,0.00,weatherlink.com 1.10,2014-03-08 03:51:00,
2014-03-07 22:06:00,40.3,38.0,29.55,NW,312,0.0,0.0,91,0.00,,,0.00,weatherlink.com 1.10,2014-03-08 04:06:00,
2014-03-07 22:21:00,40.0,38.0,29.55,NW,312,0.0,0.0,91,0.00,,,0.00,weatherlink.com 1.10,2014-03-08 04:21:00,
2014-03-07 22:36:00,39.8,37.0,29.55,NW,312,0.0,0.0,91,0.00,,,0.00,weatherlink.com 1.10,2014-03-08 04:36:00,
2014-03-07 22:51:00,39.5,37.0,29.55,NW,311,0.0,0.0,91,0.00,,,0.00,weatherlink.com 1.10,2014-03-08 04:51:00,
2014-03-07 23:06:00,39.1,37.0,29.55,NW,312,0.0,0.0,91,0.00,,,0.00,weatherlink.com 1.10,2014-03-08 05:06:00,
2014-03-07 23:21:00,38.6,37.0,29.55,NW,312,0.0,0.0,92,0.00,,,0.00,weatherlink.com 1.10,2014-03-08 05:21:00,
2014-03-07 23:36:00,38.3,36.0,29.55,NW,311,0.0,0.0,92,0.00,,,0.00,weatherlink.com 1.10,2014-03-08 05:36:00,
2014-03-07 23:51:00,37.9,36.0,29.55,NW,312,0.0,0.0,92,0.00,,,0.00,weatherlink.com 1.10,2014-03-08 05:51:00,